sensor_id;sensor_type;location;lat;lon;timestamp;temperature;humidity
14016;DHT22;7083;48.854;9.158;2023-07-08T00:01:55;18.10;72.30
14016;DHT22;7083;48.854;9.158;2023-07-08T00:04:23;18.00;72.70
14016;DHT22;7083;48.854;9.158;2023-07-08T00:06:51;18.00;73.80
14016;DHT22;7083;48.854;9.158;2023-07-08T00:09:18;18.00;72.90
14016;DHT22;7083;48.854;9.158;2023-07-08T00:11:44;17.90;73.30
14016;DHT22;7083;48.854;9.158;2023-07-08T00:14:11;17.90;73.30
14016;DHT22;7083;48.854;9.158;2023-07-08T00:16:38;17.80;73.40
14016;DHT22;7083;48.854;9.158;2023-07-08T00:19:08;17.80;73.60
14016;DHT22;7083;48.854;9.158;2023-07-08T00:21:36;17.70;74.20
14016;DHT22;7083;48.854;9.158;2023-07-08T00:24:03;17.70;75.60
14016;DHT22;7083;48.854;9.158;2023-07-08T00:26:31;17.70;76.40
14016;DHT22;7083;48.854;9.158;2023-07-08T00:28:57;17.70;77.00
14016;DHT22;7083;48.854;9.158;2023-07-08T00:31:25;17.60;77.50
14016;DHT22;7083;48.854;9.158;2023-07-08T00:33:52;17.60;77.20
14016;DHT22;7083;48.854;9.158;2023-07-08T00:36:21;17.60;77.60
14016;DHT22;7083;48.854;9.158;2023-07-08T00:38:50;17.50;77.40
14016;DHT22;7083;48.854;9.158;2023-07-08T00:41:21;17.50;76.90
14016;DHT22;7083;48.854;9.158;2023-07-08T00:43:50;17.40;77.30
14016;DHT22;7083;48.854;9.158;2023-07-08T00:46:34;17.40;77.30
14016;DHT22;7083;48.854;9.158;2023-07-08T00:49:24;17.30;77.00
14016;DHT22;7083;48.854;9.158;2023-07-08T00:51:51;17.30;78.20
14016;DHT22;7083;48.854;9.158;2023-07-08T00:54:20;17.20;78.90
14016;DHT22;7083;48.854;9.158;2023-07-08T00:56:49;17.20;78.20
14016;DHT22;7083;48.854;9.158;2023-07-08T00:59:22;17.10;78.80
14016;DHT22;7083;48.854;9.158;2023-07-08T01:01:51;17.10;78.90
14016;DHT22;7083;48.854;9.158;2023-07-08T01:04:23;17.00;80.20
14016;DHT22;7083;48.854;9.158;2023-07-08T01:06:53;17.00;80.90
14016;DHT22;7083;48.854;9.158;2023-07-08T01:09:25;16.90;81.20
14016;DHT22;7083;48.854;9.158;2023-07-08T01:11:54;16.90;81.80
14016;DHT22;7083;48.854;9.158;2023-07-08T01:14:22;16.80;82.10
14016;DHT22;7083;48.854;9.158;2023-07-08T01:16:51;16.70;81.70
14016;DHT22;7083;48.854;9.158;2023-07-08T01:19:21;16.70;82.00
14016;DHT22;7083;48.854;9.158;2023-07-08T01:21:59;16.60;82.90
14016;DHT22;7083;48.854;9.158;2023-07-08T01:24:27;16.60;82.50
14016;DHT22;7083;48.854;9.158;2023-07-08T01:26:56;16.50;84.50
14016;DHT22;7083;48.854;9.158;2023-07-08T01:29:23;16.50;85.00
14016;DHT22;7083;48.854;9.158;2023-07-08T01:31:50;16.40;85.90
14016;DHT22;7083;48.854;9.158;2023-07-08T01:34:17;16.40;86.60
14016;DHT22;7083;48.854;9.158;2023-07-08T01:36:48;16.40;88.80
14016;DHT22;7083;48.854;9.158;2023-07-08T01:39:21;16.30;89.10
14016;DHT22;7083;48.854;9.158;2023-07-08T01:41:47;16.30;89.60
14016;DHT22;7083;48.854;9.158;2023-07-08T01:44:23;16.20;90.30
14016;DHT22;7083;48.854;9.158;2023-07-08T01:46:51;16.20;91.10
14016;DHT22;7083;48.854;9.158;2023-07-08T01:49:20;16.10;91.20
14016;DHT22;7083;48.854;9.158;2023-07-08T01:51:48;16.10;91.40
14016;DHT22;7083;48.854;9.158;2023-07-08T01:54:17;16.00;92.40
14016;DHT22;7083;48.854;9.158;2023-07-08T01:56:44;16.00;92.60
14016;DHT22;7083;48.854;9.158;2023-07-08T01:59:10;15.90;93.50
14016;DHT22;7083;48.854;9.158;2023-07-08T02:01:37;15.90;94.50
14016;DHT22;7083;48.854;9.158;2023-07-08T02:04:04;15.90;95.10
14016;DHT22;7083;48.854;9.158;2023-07-08T02:06:30;15.80;95.30
14016;DHT22;7083;48.854;9.158;2023-07-08T02:08:57;15.80;96.40
14016;DHT22;7083;48.854;9.158;2023-07-08T02:11:25;15.80;99.40
14016;DHT22;7083;48.854;9.158;2023-07-08T02:13:52;15.80;99.80
14016;DHT22;7083;48.854;9.158;2023-07-08T02:16:19;15.70;99.90
14016;DHT22;7083;48.854;9.158;2023-07-08T02:18:45;15.70;99.90
14016;DHT22;7083;48.854;9.158;2023-07-08T02:21:12;15.70;99.90
14016;DHT22;7083;48.854;9.158;2023-07-08T02:23:39;15.70;99.90
14016;DHT22;7083;48.854;9.158;2023-07-08T02:26:06;15.60;99.90
14016;DHT22;7083;48.854;9.158;2023-07-08T02:28:34;15.60;99.90
14016;DHT22;7083;48.854;9.158;2023-07-08T02:31:02;15.60;99.90
14016;DHT22;7083;48.854;9.158;2023-07-08T02:33:29;15.50;99.90
14016;DHT22;7083;48.854;9.158;2023-07-08T02:35:58;15.50;99.90
14016;DHT22;7083;48.854;9.158;2023-07-08T02:38:25;15.60;99.90
14016;DHT22;7083;48.854;9.158;2023-07-08T02:40:52;15.60;99.90
14016;DHT22;7083;48.854;9.158;2023-07-08T02:43:19;15.70;99.90
14016;DHT22;7083;48.854;9.158;2023-07-08T02:45:49;15.70;99.90
14016;DHT22;7083;48.854;9.158;2023-07-08T02:48:15;15.70;99.90
14016;DHT22;7083;48.854;9.158;2023-07-08T02:50:42;15.70;99.90
14016;DHT22;7083;48.854;9.158;2023-07-08T02:53:09;15.80;99.90
14016;DHT22;7083;48.854;9.158;2023-07-08T02:55:35;15.80;99.90
14016;DHT22;7083;48.854;9.158;2023-07-08T02:58:02;15.80;99.90
14016;DHT22;7083;48.854;9.158;2023-07-08T03:00:28;15.80;99.90
14016;DHT22;7083;48.854;9.158;2023-07-08T03:02:56;15.80;99.90
14016;DHT22;7083;48.854;9.158;2023-07-08T03:05:24;15.80;99.90
14016;DHT22;7083;48.854;9.158;2023-07-08T03:07:51;15.90;99.90
14016;DHT22;7083;48.854;9.158;2023-07-08T03:10:17;15.90;99.90
14016;DHT22;7083;48.854;9.158;2023-07-08T03:12:44;15.90;99.90
14016;DHT22;7083;48.854;9.158;2023-07-08T03:15:10;15.90;99.90
14016;DHT22;7083;48.854;9.158;2023-07-08T03:17:37;15.90;99.90
14016;DHT22;7083;48.854;9.158;2023-07-08T03:20:06;15.90;99.90
14016;DHT22;7083;48.854;9.158;2023-07-08T03:22:33;15.90;99.90
14016;DHT22;7083;48.854;9.158;2023-07-08T03:24:59;15.90;99.90
14016;DHT22;7083;48.854;9.158;2023-07-08T03:27:26;15.90;99.90
14016;DHT22;7083;48.854;9.158;2023-07-08T03:29:53;15.90;99.90
14016;DHT22;7083;48.854;9.158;2023-07-08T03:32:19;15.90;99.90
14016;DHT22;7083;48.854;9.158;2023-07-08T03:34:46;15.80;99.90
14016;DHT22;7083;48.854;9.158;2023-07-08T03:37:14;15.80;99.90
14016;DHT22;7083;48.854;9.158;2023-07-08T03:39:41;15.80;99.90
14016;DHT22;7083;48.854;9.158;2023-07-08T03:42:07;15.90;99.90
14016;DHT22;7083;48.854;9.158;2023-07-08T03:44:34;15.90;99.90
14016;DHT22;7083;48.854;9.158;2023-07-08T03:47:01;15.80;99.90
14016;DHT22;7083;48.854;9.158;2023-07-08T03:49:27;15.90;99.90
14016;DHT22;7083;48.854;9.158;2023-07-08T03:51:54;15.90;99.90
14016;DHT22;7083;48.854;9.158;2023-07-08T03:54:24;15.90;99.90
14016;DHT22;7083;48.854;9.158;2023-07-08T03:56:51;15.90;99.90
14016;DHT22;7083;48.854;9.158;2023-07-08T03:59:18;15.80;99.90
14016;DHT22;7083;48.854;9.158;2023-07-08T04:01:45;15.80;99.90
14016;DHT22;7083;48.854;9.158;2023-07-08T04:04:13;15.80;99.90
14016;DHT22;7083;48.854;9.158;2023-07-08T04:06:41;15.80;99.90
14016;DHT22;7083;48.854;9.158;2023-07-08T04:09:07;15.70;99.90
14016;DHT22;7083;48.854;9.158;2023-07-08T04:11:35;15.70;99.90
14016;DHT22;7083;48.854;9.158;2023-07-08T04:14:02;15.70;99.90
14016;DHT22;7083;48.854;9.158;2023-07-08T04:16:35;15.70;99.90
14016;DHT22;7083;48.854;9.158;2023-07-08T04:19:07;15.70;99.90
14016;DHT22;7083;48.854;9.158;2023-07-08T04:21:39;15.70;99.90
14016;DHT22;7083;48.854;9.158;2023-07-08T04:24:09;15.70;99.90
14016;DHT22;7083;48.854;9.158;2023-07-08T04:26:37;15.80;99.90
14016;DHT22;7083;48.854;9.158;2023-07-08T04:29:06;15.80;99.90
14016;DHT22;7083;48.854;9.158;2023-07-08T04:31:33;15.90;99.90
14016;DHT22;7083;48.854;9.158;2023-07-08T04:34:00;15.90;99.90
14016;DHT22;7083;48.854;9.158;2023-07-08T04:36:26;16.00;99.90
14016;DHT22;7083;48.854;9.158;2023-07-08T04:38:53;16.10;99.90
14016;DHT22;7083;48.854;9.158;2023-07-08T04:41:22;16.20;99.90
14016;DHT22;7083;48.854;9.158;2023-07-08T04:43:52;16.30;99.90
14016;DHT22;7083;48.854;9.158;2023-07-08T04:46:24;16.40;99.90
14016;DHT22;7083;48.854;9.158;2023-07-08T04:48:53;16.50;99.90
14016;DHT22;7083;48.854;9.158;2023-07-08T04:51:21;16.60;99.90
14016;DHT22;7083;48.854;9.158;2023-07-08T04:53:47;16.70;99.90
14016;DHT22;7083;48.854;9.158;2023-07-08T04:56:14;16.90;99.90
14016;DHT22;7083;48.854;9.158;2023-07-08T04:58:41;17.00;99.90
14016;DHT22;7083;48.854;9.158;2023-07-08T05:01:09;17.20;99.90
14016;DHT22;7083;48.854;9.158;2023-07-08T05:03:36;17.40;99.90
14016;DHT22;7083;48.854;9.158;2023-07-08T05:06:03;17.60;99.90
14016;DHT22;7083;48.854;9.158;2023-07-08T05:08:29;17.70;99.90
14016;DHT22;7083;48.854;9.158;2023-07-08T05:10:56;17.80;99.90
14016;DHT22;7083;48.854;9.158;2023-07-08T05:13:23;17.80;99.90
14016;DHT22;7083;48.854;9.158;2023-07-08T05:15:49;17.90;99.90
14016;DHT22;7083;48.854;9.158;2023-07-08T05:18:17;17.90;99.90
14016;DHT22;7083;48.854;9.158;2023-07-08T05:20:50;17.80;99.90
14016;DHT22;7083;48.854;9.158;2023-07-08T05:23:16;17.80;99.90
14016;DHT22;7083;48.854;9.158;2023-07-08T05:25:44;17.90;99.70
14016;DHT22;7083;48.854;9.158;2023-07-08T05:28:10;18.00;98.30
14016;DHT22;7083;48.854;9.158;2023-07-08T05:30:39;18.00;97.60
14016;DHT22;7083;48.854;9.158;2023-07-08T05:33:07;18.20;97.80
14016;DHT22;7083;48.854;9.158;2023-07-08T05:35:35;18.30;97.90
14016;DHT22;7083;48.854;9.158;2023-07-08T05:38:01;18.60;97.10
14016;DHT22;7083;48.854;9.158;2023-07-08T05:40:28;18.80;97.90
14016;DHT22;7083;48.854;9.158;2023-07-08T05:42:55;19.00;97.50
14016;DHT22;7083;48.854;9.158;2023-07-08T05:45:22;19.20;96.70
14016;DHT22;7083;48.854;9.158;2023-07-08T05:47:48;19.40;95.80
14016;DHT22;7083;48.854;9.158;2023-07-08T05:50:15;19.60;94.40
14016;DHT22;7083;48.854;9.158;2023-07-08T05:52:43;19.80;93.60
14016;DHT22;7083;48.854;9.158;2023-07-08T05:55:10;20.00;93.60
14016;DHT22;7083;48.854;9.158;2023-07-08T05:57:36;20.00;93.20
14016;DHT22;7083;48.854;9.158;2023-07-08T06:00:05;20.10;92.40
14016;DHT22;7083;48.854;9.158;2023-07-08T06:02:32;20.10;92.40
14016;DHT22;7083;48.854;9.158;2023-07-08T06:04:59;20.10;93.00
14016;DHT22;7083;48.854;9.158;2023-07-08T06:07:26;20.10;94.10
14016;DHT22;7083;48.854;9.158;2023-07-08T06:09:54;20.10;93.80
14016;DHT22;7083;48.854;9.158;2023-07-08T06:12:21;20.10;92.60
14016;DHT22;7083;48.854;9.158;2023-07-08T06:14:48;20.20;91.70
14016;DHT22;7083;48.854;9.158;2023-07-08T06:17:15;20.20;90.70
14016;DHT22;7083;48.854;9.158;2023-07-08T06:19:42;20.30;89.50
14016;DHT22;7083;48.854;9.158;2023-07-08T06:22:08;20.40;88.70
14016;DHT22;7083;48.854;9.158;2023-07-08T06:24:35;20.50;88.70
14016;DHT22;7083;48.854;9.158;2023-07-08T06:27:04;20.60;87.90
14016;DHT22;7083;48.854;9.158;2023-07-08T06:29:31;20.70;85.00
14016;DHT22;7083;48.854;9.158;2023-07-08T06:31:57;20.90;84.20
14016;DHT22;7083;48.854;9.158;2023-07-08T06:34:24;21.00;84.20
14016;DHT22;7083;48.854;9.158;2023-07-08T06:36:51;21.10;84.30
14016;DHT22;7083;48.854;9.158;2023-07-08T06:39:18;21.30;82.60
14016;DHT22;7083;48.854;9.158;2023-07-08T06:41:45;21.50;82.30
14016;DHT22;7083;48.854;9.158;2023-07-08T06:44:13;21.70;79.70
14016;DHT22;7083;48.854;9.158;2023-07-08T06:46:40;22.00;80.20
14016;DHT22;7083;48.854;9.158;2023-07-08T06:49:06;22.30;76.20
14016;DHT22;7083;48.854;9.158;2023-07-08T06:51:35;22.70;75.60
14016;DHT22;7083;48.854;9.158;2023-07-08T06:54:02;23.00;75.40
14016;DHT22;7083;48.854;9.158;2023-07-08T06:56:30;23.30;72.60
14016;DHT22;7083;48.854;9.158;2023-07-08T06:58:57;23.80;69.90
14016;DHT22;7083;48.854;9.158;2023-07-08T07:01:24;24.20;69.70
14016;DHT22;7083;48.854;9.158;2023-07-08T07:03:51;24.60;67.90
14016;DHT22;7083;48.854;9.158;2023-07-08T07:06:18;24.90;67.10
14016;DHT22;7083;48.854;9.158;2023-07-08T07:08:44;25.20;66.40
14016;DHT22;7083;48.854;9.158;2023-07-08T07:11:11;25.40;64.70
14016;DHT22;7083;48.854;9.158;2023-07-08T07:13:38;25.60;63.90
14016;DHT22;7083;48.854;9.158;2023-07-08T07:16:04;25.70;63.40
14016;DHT22;7083;48.854;9.158;2023-07-08T07:18:32;25.80;63.80
14016;DHT22;7083;48.854;9.158;2023-07-08T07:20:59;25.90;63.50
14016;DHT22;7083;48.854;9.158;2023-07-08T07:23:26;26.00;63.20
14016;DHT22;7083;48.854;9.158;2023-07-08T07:25:52;26.10;63.70
14016;DHT22;7083;48.854;9.158;2023-07-08T07:28:19;26.10;63.50
14016;DHT22;7083;48.854;9.158;2023-07-08T07:30:46;26.20;65.00
14016;DHT22;7083;48.854;9.158;2023-07-08T07:33:13;26.10;68.20
14016;DHT22;7083;48.854;9.158;2023-07-08T07:35:43;26.10;67.80
14016;DHT22;7083;48.854;9.158;2023-07-08T07:38:11;26.10;69.10
14016;DHT22;7083;48.854;9.158;2023-07-08T07:40:39;26.00;67.40
14016;DHT22;7083;48.854;9.158;2023-07-08T07:43:06;25.90;69.30
14016;DHT22;7083;48.854;9.158;2023-07-08T07:45:32;25.90;70.40
14016;DHT22;7083;48.854;9.158;2023-07-08T07:47:59;25.80;69.40
14016;DHT22;7083;48.854;9.158;2023-07-08T07:50:26;25.80;70.60
14016;DHT22;7083;48.854;9.158;2023-07-08T07:52:54;25.70;70.50
14016;DHT22;7083;48.854;9.158;2023-07-08T07:55:20;25.70;70.40
14016;DHT22;7083;48.854;9.158;2023-07-08T07:57:47;25.70;70.70
14016;DHT22;7083;48.854;9.158;2023-07-08T08:00:14;25.60;68.40
14016;DHT22;7083;48.854;9.158;2023-07-08T08:02:40;25.60;66.50
14016;DHT22;7083;48.854;9.158;2023-07-08T08:05:08;25.60;66.90
14016;DHT22;7083;48.854;9.158;2023-07-08T08:07:34;25.60;66.50
14016;DHT22;7083;48.854;9.158;2023-07-08T08:10:04;25.60;64.90
14016;DHT22;7083;48.854;9.158;2023-07-08T08:12:31;25.70;65.40
14016;DHT22;7083;48.854;9.158;2023-07-08T08:14:57;25.70;67.90
14016;DHT22;7083;48.854;9.158;2023-07-08T08:17:24;25.60;67.20
14016;DHT22;7083;48.854;9.158;2023-07-08T08:19:51;25.50;66.50
14016;DHT22;7083;48.854;9.158;2023-07-08T08:22:17;25.50;65.60
14016;DHT22;7083;48.854;9.158;2023-07-08T08:24:46;25.50;64.70
14016;DHT22;7083;48.854;9.158;2023-07-08T08:27:15;25.50;63.40
14016;DHT22;7083;48.854;9.158;2023-07-08T08:29:41;25.50;62.60
14016;DHT22;7083;48.854;9.158;2023-07-08T08:32:08;25.70;64.70
14016;DHT22;7083;48.854;9.158;2023-07-08T08:34:34;25.70;65.60
14016;DHT22;7083;48.854;9.158;2023-07-08T08:37:01;25.70;65.40
14016;DHT22;7083;48.854;9.158;2023-07-08T08:39:28;25.80;66.00
14016;DHT22;7083;48.854;9.158;2023-07-08T08:41:55;25.90;64.00
14016;DHT22;7083;48.854;9.158;2023-07-08T08:44:27;25.90;64.50
14016;DHT22;7083;48.854;9.158;2023-07-08T08:46:58;25.90;63.00
14016;DHT22;7083;48.854;9.158;2023-07-08T08:49:32;25.90;64.70
14016;DHT22;7083;48.854;9.158;2023-07-08T08:51:59;25.90;63.20
14016;DHT22;7083;48.854;9.158;2023-07-08T08:54:26;26.00;62.00
14016;DHT22;7083;48.854;9.158;2023-07-08T08:57:00;26.00;61.30
14016;DHT22;7083;48.854;9.158;2023-07-08T08:59:38;26.10;62.60
14016;DHT22;7083;48.854;9.158;2023-07-08T09:02:26;26.10;63.00
14016;DHT22;7083;48.854;9.158;2023-07-08T09:04:56;26.20;64.80
14016;DHT22;7083;48.854;9.158;2023-07-08T09:07:24;26.20;64.20
14016;DHT22;7083;48.854;9.158;2023-07-08T09:09:57;26.30;63.60
14016;DHT22;7083;48.854;9.158;2023-07-08T09:12:27;26.40;63.60
14016;DHT22;7083;48.854;9.158;2023-07-08T09:14:57;26.40;60.70
14016;DHT22;7083;48.854;9.158;2023-07-08T09:17:28;26.40;62.30
14016;DHT22;7083;48.854;9.158;2023-07-08T09:20:02;26.40;60.90
14016;DHT22;7083;48.854;9.158;2023-07-08T09:22:36;26.50;61.80
14016;DHT22;7083;48.854;9.158;2023-07-08T09:25:12;26.40;61.90
14016;DHT22;7083;48.854;9.158;2023-07-08T09:27:42;26.40;61.50
14016;DHT22;7083;48.854;9.158;2023-07-08T09:30:13;26.50;61.70
14016;DHT22;7083;48.854;9.158;2023-07-08T09:32:41;26.70;61.70
14016;DHT22;7083;48.854;9.158;2023-07-08T09:35:09;26.90;60.60
14016;DHT22;7083;48.854;9.158;2023-07-08T09:37:46;27.00;60.90
14016;DHT22;7083;48.854;9.158;2023-07-08T09:40:16;27.10;61.50
14016;DHT22;7083;48.854;9.158;2023-07-08T09:42:46;27.10;60.00
14016;DHT22;7083;48.854;9.158;2023-07-08T09:45:19;27.30;59.70
14016;DHT22;7083;48.854;9.158;2023-07-08T09:47:47;27.30;58.80
14016;DHT22;7083;48.854;9.158;2023-07-08T09:50:18;27.50;57.70
14016;DHT22;7083;48.854;9.158;2023-07-08T09:52:46;27.50;56.00
14016;DHT22;7083;48.854;9.158;2023-07-08T09:55:13;27.60;55.80
14016;DHT22;7083;48.854;9.158;2023-07-08T09:57:41;27.60;57.50
14016;DHT22;7083;48.854;9.158;2023-07-08T10:00:12;27.70;55.60
14016;DHT22;7083;48.854;9.158;2023-07-08T10:02:45;27.70;55.40
14016;DHT22;7083;48.854;9.158;2023-07-08T10:05:16;27.80;54.80
14016;DHT22;7083;48.854;9.158;2023-07-08T10:07:44;27.80;55.30
14016;DHT22;7083;48.854;9.158;2023-07-08T10:10:15;27.90;56.30
14016;DHT22;7083;48.854;9.158;2023-07-08T10:12:52;28.00;57.40
14016;DHT22;7083;48.854;9.158;2023-07-08T10:15:24;27.90;57.40
14016;DHT22;7083;48.854;9.158;2023-07-08T10:17:55;27.90;57.70
14016;DHT22;7083;48.854;9.158;2023-07-08T10:20:23;27.90;58.40
14016;DHT22;7083;48.854;9.158;2023-07-08T10:23:00;28.00;58.70
14016;DHT22;7083;48.854;9.158;2023-07-08T10:25:38;28.00;57.50
14016;DHT22;7083;48.854;9.158;2023-07-08T10:28:21;28.10;57.30
14016;DHT22;7083;48.854;9.158;2023-07-08T10:30:58;28.20;57.00
14016;DHT22;7083;48.854;9.158;2023-07-08T10:33:43;28.30;56.50
14016;DHT22;7083;48.854;9.158;2023-07-08T10:36:21;28.30;55.90
14016;DHT22;7083;48.854;9.158;2023-07-08T10:39:10;28.20;58.40
14016;DHT22;7083;48.854;9.158;2023-07-08T10:41:47;28.20;58.10
14016;DHT22;7083;48.854;9.158;2023-07-08T10:44:19;28.20;58.50
14016;DHT22;7083;48.854;9.158;2023-07-08T10:46:52;28.20;59.00
14016;DHT22;7083;48.854;9.158;2023-07-08T10:49:47;28.30;58.70
14016;DHT22;7083;48.854;9.158;2023-07-08T10:52:28;28.30;58.80
14016;DHT22;7083;48.854;9.158;2023-07-08T10:55:18;28.20;60.10
14016;DHT22;7083;48.854;9.158;2023-07-08T10:57:59;28.20;59.80
14016;DHT22;7083;48.854;9.158;2023-07-08T11:00:35;28.20;60.70
14016;DHT22;7083;48.854;9.158;2023-07-08T11:06:14;28.30;61.00
14016;DHT22;7083;48.854;9.158;2023-07-08T11:08:46;28.40;60.40
14016;DHT22;7083;48.854;9.158;2023-07-08T11:11:26;28.40;60.40
14016;DHT22;7083;48.854;9.158;2023-07-08T11:13:59;28.50;60.00
14016;DHT22;7083;48.854;9.158;2023-07-08T11:16:31;28.60;59.30
14016;DHT22;7083;48.854;9.158;2023-07-08T11:19:04;28.60;59.60
14016;DHT22;7083;48.854;9.158;2023-07-08T11:21:37;28.60;59.30
14016;DHT22;7083;48.854;9.158;2023-07-08T11:24:10;28.70;59.60
14016;DHT22;7083;48.854;9.158;2023-07-08T11:26:42;28.80;59.00
14016;DHT22;7083;48.854;9.158;2023-07-08T11:29:16;28.80;58.50
14016;DHT22;7083;48.854;9.158;2023-07-08T11:31:44;28.80;58.30
14016;DHT22;7083;48.854;9.158;2023-07-08T11:34:14;29.00;57.90
14016;DHT22;7083;48.854;9.158;2023-07-08T11:36:44;29.00;58.50
14016;DHT22;7083;48.854;9.158;2023-07-08T11:39:32;29.10;58.70
14016;DHT22;7083;48.854;9.158;2023-07-08T11:42:21;29.30;58.40
14016;DHT22;7083;48.854;9.158;2023-07-08T11:44:52;29.50;58.90
14016;DHT22;7083;48.854;9.158;2023-07-08T11:47:34;29.60;58.10
14016;DHT22;7083;48.854;9.158;2023-07-08T11:50:02;29.70;58.40
14016;DHT22;7083;48.854;9.158;2023-07-08T11:52:49;30.00;58.00
14016;DHT22;7083;48.854;9.158;2023-07-08T11:55:22;30.10;57.10
14016;DHT22;7083;48.854;9.158;2023-07-08T11:57:54;30.00;56.70
14016;DHT22;7083;48.854;9.158;2023-07-08T12:00:24;30.00;56.50
14016;DHT22;7083;48.854;9.158;2023-07-08T12:02:55;29.80;56.90
14016;DHT22;7083;48.854;9.158;2023-07-08T12:05:30;29.80;57.60
14016;DHT22;7083;48.854;9.158;2023-07-08T12:08:00;29.80;56.90
14016;DHT22;7083;48.854;9.158;2023-07-08T12:10:31;30.00;57.30
14016;DHT22;7083;48.854;9.158;2023-07-08T12:12:58;30.20;56.00
14016;DHT22;7083;48.854;9.158;2023-07-08T12:15:27;30.40;55.80
14016;DHT22;7083;48.854;9.158;2023-07-08T12:17:56;30.60;55.60
14016;DHT22;7083;48.854;9.158;2023-07-08T12:20:27;30.80;55.00
14016;DHT22;7083;48.854;9.158;2023-07-08T12:22:54;31.00;54.30
14016;DHT22;7083;48.854;9.158;2023-07-08T12:25:26;31.20;54.00
14016;DHT22;7083;48.854;9.158;2023-07-08T12:27:53;31.30;53.20
14016;DHT22;7083;48.854;9.158;2023-07-08T12:30:20;31.60;54.20
14016;DHT22;7083;48.854;9.158;2023-07-08T12:32:47;31.90;52.30
14016;DHT22;7083;48.854;9.158;2023-07-08T12:35:20;32.20;52.20
14016;DHT22;7083;48.854;9.158;2023-07-08T12:37:48;32.50;51.40
14016;DHT22;7083;48.854;9.158;2023-07-08T12:40:15;32.70;49.50
14016;DHT22;7083;48.854;9.158;2023-07-08T12:42:43;32.90;48.60
14016;DHT22;7083;48.854;9.158;2023-07-08T12:45:14;33.00;50.60
14016;DHT22;7083;48.854;9.158;2023-07-08T12:47:42;33.20;50.10
14016;DHT22;7083;48.854;9.158;2023-07-08T12:50:09;33.30;49.80
14016;DHT22;7083;48.854;9.158;2023-07-08T12:52:36;33.70;48.90
14016;DHT22;7083;48.854;9.158;2023-07-08T12:55:04;34.00;48.50
14016;DHT22;7083;48.854;9.158;2023-07-08T12:57:30;34.60;48.50
14016;DHT22;7083;48.854;9.158;2023-07-08T12:59:59;35.50;45.20
14016;DHT22;7083;48.854;9.158;2023-07-08T13:02:28;36.50;45.50
14016;DHT22;7083;48.854;9.158;2023-07-08T13:04:59;37.70;43.80
14016;DHT22;7083;48.854;9.158;2023-07-08T13:07:34;38.60;43.20
14016;DHT22;7083;48.854;9.158;2023-07-08T13:10:03;39.20;40.80
14016;DHT22;7083;48.854;9.158;2023-07-08T13:12:32;39.70;40.30
14016;DHT22;7083;48.854;9.158;2023-07-08T13:15:03;40.20;40.20
14016;DHT22;7083;48.854;9.158;2023-07-08T13:17:30;40.90;39.30
14016;DHT22;7083;48.854;9.158;2023-07-08T13:19:59;41.30;38.40
14016;DHT22;7083;48.854;9.158;2023-07-08T13:22:26;42.00;37.50
14016;DHT22;7083;48.854;9.158;2023-07-08T13:25:00;42.90;36.50
14016;DHT22;7083;48.854;9.158;2023-07-08T13:27:27;43.60;35.40
14016;DHT22;7083;48.854;9.158;2023-07-08T13:30:15;43.60;35.30
14016;DHT22;7083;48.854;9.158;2023-07-08T13:32:42;43.70;36.70
14016;DHT22;7083;48.854;9.158;2023-07-08T13:35:21;44.20;35.40
14016;DHT22;7083;48.854;9.158;2023-07-08T13:37:48;44.70;34.30
14016;DHT22;7083;48.854;9.158;2023-07-08T13:40:15;44.90;35.10
14016;DHT22;7083;48.854;9.158;2023-07-08T13:42:47;45.10;34.50
14016;DHT22;7083;48.854;9.158;2023-07-08T13:45:15;45.30;33.40
14016;DHT22;7083;48.854;9.158;2023-07-08T13:47:58;45.50;33.40
14016;DHT22;7083;48.854;9.158;2023-07-08T13:50:27;45.70;33.70
14016;DHT22;7083;48.854;9.158;2023-07-08T13:52:56;45.50;32.40
14016;DHT22;7083;48.854;9.158;2023-07-08T13:55:23;44.90;34.60
14016;DHT22;7083;48.854;9.158;2023-07-08T13:57:57;44.70;33.00
14016;DHT22;7083;48.854;9.158;2023-07-08T14:00:26;44.60;35.10
14016;DHT22;7083;48.854;9.158;2023-07-08T14:02:56;44.60;33.70
14016;DHT22;7083;48.854;9.158;2023-07-08T14:05:23;43.90;34.90
14016;DHT22;7083;48.854;9.158;2023-07-08T14:07:50;42.00;35.30
14016;DHT22;7083;48.854;9.158;2023-07-08T14:10:17;40.30;38.10
14016;DHT22;7083;48.854;9.158;2023-07-08T14:12:44;39.90;38.00
14016;DHT22;7083;48.854;9.158;2023-07-08T14:15:10;40.60;39.30
14016;DHT22;7083;48.854;9.158;2023-07-08T14:17:37;41.00;37.30
14016;DHT22;7083;48.854;9.158;2023-07-08T14:20:11;41.20;37.00
14016;DHT22;7083;48.854;9.158;2023-07-08T14:22:38;41.50;35.90
14016;DHT22;7083;48.854;9.158;2023-07-08T14:25:08;40.90;36.70
14016;DHT22;7083;48.854;9.158;2023-07-08T14:27:35;40.10;40.20
14016;DHT22;7083;48.854;9.158;2023-07-08T14:30:02;38.90;41.70
14016;DHT22;7083;48.854;9.158;2023-07-08T14:32:30;38.00;42.40
14016;DHT22;7083;48.854;9.158;2023-07-08T14:35:01;37.60;42.50
14016;DHT22;7083;48.854;9.158;2023-07-08T14:37:32;38.20;39.90
14016;DHT22;7083;48.854;9.158;2023-07-08T14:39:59;38.30;40.80
14016;DHT22;7083;48.854;9.158;2023-07-08T14:42:27;37.90;43.10
14016;DHT22;7083;48.854;9.158;2023-07-08T14:44:54;38.20;42.60
14016;DHT22;7083;48.854;9.158;2023-07-08T14:47:21;40.00;40.50
14016;DHT22;7083;48.854;9.158;2023-07-08T14:49:48;40.90;39.00
14016;DHT22;7083;48.854;9.158;2023-07-08T14:52:15;41.90;36.90
14016;DHT22;7083;48.854;9.158;2023-07-08T14:54:43;41.90;37.00
14016;DHT22;7083;48.854;9.158;2023-07-08T14:57:11;41.10;37.40
14016;DHT22;7083;48.854;9.158;2023-07-08T14:59:41;40.10;38.10
14016;DHT22;7083;48.854;9.158;2023-07-08T15:02:18;40.40;38.70
14016;DHT22;7083;48.854;9.158;2023-07-08T15:04:45;41.90;36.60
14016;DHT22;7083;48.854;9.158;2023-07-08T15:07:12;43.60;35.00
14016;DHT22;7083;48.854;9.158;2023-07-08T15:09:38;44.60;33.60
14016;DHT22;7083;48.854;9.158;2023-07-08T15:12:11;45.90;33.60
14016;DHT22;7083;48.854;9.158;2023-07-08T15:14:38;46.70;31.40
14016;DHT22;7083;48.854;9.158;2023-07-08T15:17:10;47.00;31.30
14016;DHT22;7083;48.854;9.158;2023-07-08T15:19:39;47.50;33.70
14016;DHT22;7083;48.854;9.158;2023-07-08T15:22:07;48.10;31.30
14016;DHT22;7083;48.854;9.158;2023-07-08T15:24:34;48.60;30.30
14016;DHT22;7083;48.854;9.158;2023-07-08T15:27:02;48.10;29.80
14016;DHT22;7083;48.854;9.158;2023-07-08T15:29:30;46.90;32.00
14016;DHT22;7083;48.854;9.158;2023-07-08T15:31:56;46.80;32.00
14016;DHT22;7083;48.854;9.158;2023-07-08T15:34:23;47.20;32.60
14016;DHT22;7083;48.854;9.158;2023-07-08T15:36:50;47.40;30.50
14016;DHT22;7083;48.854;9.158;2023-07-08T15:39:16;48.00;30.70
14016;DHT22;7083;48.854;9.158;2023-07-08T15:41:44;47.90;31.10
14016;DHT22;7083;48.854;9.158;2023-07-08T15:44:12;48.10;30.80
14016;DHT22;7083;48.854;9.158;2023-07-08T15:46:42;48.30;31.60
14016;DHT22;7083;48.854;9.158;2023-07-08T15:49:13;48.40;30.00
14016;DHT22;7083;48.854;9.158;2023-07-08T15:51:48;48.60;31.00
14016;DHT22;7083;48.854;9.158;2023-07-08T15:54:16;48.70;29.50
14016;DHT22;7083;48.854;9.158;2023-07-08T15:56:43;48.50;29.90
14016;DHT22;7083;48.854;9.158;2023-07-08T15:59:12;48.60;30.00
14016;DHT22;7083;48.854;9.158;2023-07-08T16:01:41;48.90;29.70